Decoded Metar for YPCC (COCOS ISL INTL A in AUSTRALIA) (IATA:N/A) | Meteo·Mobile Aviation Weather
aviador You're here:

YPCC Decoded Metar

COCOS ISL INTL A in AUSTRALIA
Report Time2018-09-18 15:00:00
UTC Time2018-09-18 15:22:31
Flight Rules vfr VFR
Wind110° at 13 kt
W.Decomp.*RWY 15: 10.4 kt HW 7.8 kt LCW
W.Rank110° ranks 2
Current wind is above 110° avg. (11.9)
Visibility9999 m
Phenomena:N/A
Clouds:Scattered 023 Hf
Scattered 029 Hf
Broken 034 Hf
Expected CloudBase > 2,000 ft AGL from Temp-Dew spread
Ceiling3,400 ft
Temp25°C (ISA +10)
Dew Point20°C (74% RH)
AAT24.0°C
QNH1015 hPa
Density Alt1,411 ft
Elevation10 ft
Report Wrong Elevation
Raw Report
METAR YPCC 181500Z AUTO 11013KT 9999 // SCT023 SCT029 BKN034 25/20 Q1015=

Extra information for YPCC:More info

Metar Taf Metar & Taf Last 4 Metars F.Rules Stats Wind Profile Meteogram Temp Stats Airport Information Weather charts Add Link Nearby VenuesMetar ALERT Operation Metar Decoded Social comments